Decoded Metar for K2G4 (GARRETT CO in MD, USA) (IATA:2G4) | Meteo·Mobile Aviation Weather
aviador You're here:

K2G4 Decoded Metar

GARRETT CO in MD, USA
Report Time2019-03-25 14:05:00
UTC Time2019-03-25 14:17:23
Flight Rules mvfr MVFR
Wind210° at 04 kt
W.Rank210° ranks 14
Current wind is below 210° avg. (7.3)
Visibility4828 m
Phenomena:N/A
Clouds:Scattered 001 Hf
Broken 031 Hf
Ceiling3,100 ft
Temp05°C (ISA -4)
Dew Point05°C (100% RH)
AAT2.4°C
QNH1016 hPa
Density Alt2,461 ft
Elevation2,933 ft
Report Wrong Elevation
Raw Report
K2G4 251405Z AUTO 21004KT 3SM SCT001 BKN031 05/05 A2999 RMK
AO1=

Extra information for K2G4:More info

Metar Taf Metar & Taf Last 4 Metars F.Rules Stats Wind Profile Meteogram Temp Stats Airport Information Weather charts Add Link Nearby VenuesMetar ALERT Operation Metar Decoded Social comments

AIRNAV info for K2G4